Taree Airport, Australia

1:00 AM AEDT on March 31, 2017 (GMT +1100)
Taree | | Change Station

Elev 30 ft 31.88 °S, 152.52 °E | Updated 30 minutes ago

Overcast
Overcast
64 °F
Feels Like 64 °F
N
9
Wind Variable Wind from WSW

Today
High -- | Low -- °F
--% Chance of Precip.
Yesterday
High -- | Low -- °F
Precip. -- in
Pressure 29.80 in
Visibility -9999.0 miles
Clouds Overcast 1400 ft
Dew Point 64 °F
Humidity 100%
Rainfall 0.00 in
Snow Depth Not available.
7:00 AM 6:47 PM
Waxing Crescent, 8% visible
SPECI YTRE 301330Z AUTO 24008KT //// OVC014 18/18 Q1009 PRESENT WEATHER SENSOR US
Pressure 29.80 in
Visibility -9999.0 miles
Clouds Overcast 1400 ft
Dew Point 64 °F
Humidity 100%
Rainfall 0.00 in
Snow Depth Not available.
7:00 AM 6:47 PM
Waxing Crescent, 8% visible
SPECI YTRE 301330Z AUTO 24008KT //// OVC014 18/18 Q1009 PRESENT WEATHER SENSOR US

Get Severe Weather Alerts

Thanks for signing up!

Be on the lookout for a verification email in your inbox.

You'll start receiving the daily forecast at 8 AM.

×

10-Day Weather Forecast

×

Almanac

Astronomy

Mar. 31, 2017 Rise Set
Actual Time
Civil Twilight
Nautical Twilight
Astronomical Twilight
Moon
Length of Visible Light
Length of Day
Tomorrow will be .
, % of the Moon is Illuminated

Today's Extremes

Country Highs Country Lows

Community

WunderPhotos

Upload Photos

1,962,540 photos uploaded!

WunderBlog® & News

Nearby

Air Quality

  Air Quality AQ Index Pollutant
Not available.

Snow Depth

Station Depth Elevation

Earthquake Activity

City Distance Mag. Time & Date
Minimum magnitude displayed is 2.5.

Earthquake Activity

City Distance Mag. Time & Date
Minimum magnitude displayed is 2.5.

Coastal Water Temperatures

Place Temperature

Stations

Nearby Weather Stations

Station Location Temp. Windchill Dew Point Humidity Wind Precip. Elev Updated Type